Time;durP1;ratioP1;P1;durP2;ratioP2;P2;SDS_P1;SDS_P2;PMS_P1;PMS_P2;Temp;Humidity;BMP_temperature;BMP_pressure;BME280_temperature;BME280_humidity;BME280_pressure;Samples;Min_cycle;Max_cycle;Signal;HPM_P1;HPM_P2
2022/03/01 00:00:00;;;;;;;14.95;8.23;;;-0.90;99.90;;;;;;5035241;28;20120;-72
2022/03/01 00:02:37;;;;;;;14.98;7.32;;;-0.90;99.90;;;;;;5051757;28;20447;-72
2022/03/01 00:05:10;;;;;;;15.98;8.80;;;-1.00;99.90;;;;;;5035534;28;20044;-72
2022/03/01 00:07:42;;;;;;;15.68;7.32;;;-1.00;99.90;;;;;;5034558;28;20072;-72
2022/03/01 00:10:14;;;;;;;14.80;8.07;;;-1.00;99.90;;;;;;5052359;28;20415;-73
2022/03/01 00:12:45;;;;;;;15.70;8.00;;;-1.00;99.90;;;;;;5034181;28;20135;-72
2022/03/01 00:15:12;;;;;;;15.07;7.68;;;-1.00;99.90;;;;;;5017504;28;20069;-72
2022/03/01 00:17:44;;;;;;;15.20;8.43;;;-1.00;99.90;;;;;;5051730;28;20045;-72
2022/03/01 00:20:11;;;;;;;18.35;10.38;;;-1.00;99.90;;;;;;5035190;28;20080;-72
2022/03/01 00:22:43;;;;;;;15.77;9.02;;;-1.00;99.90;;;;;;5019238;28;20037;-72
2022/03/01 00:25:10;;;;;;;19.50;9.50;;;-1.10;99.90;;;;;;5068573;28;20040;-73
2022/03/01 00:27:37;;;;;;;17.05;7.80;;;-1.10;99.90;;;;;;5019994;28;20048;-72
2022/03/01 00:30:04;;;;;;;16.17;8.02;;;-1.10;99.90;;;;;;5053375;28;20542;-72
2022/03/01 00:32:36;;;;;;;16.23;8.30;;;-1.10;99.90;;;;;;5039707;28;20106;-72
2022/03/01 00:35:08;;;;;;;17.67;8.30;;;-1.10;99.90;;;;;;5026115;28;20088;-72
2022/03/01 00:37:39;;;;;;;19.10;8.73;;;-1.10;99.90;;;;;;5046076;28;20502;-72
2022/03/01 00:40:07;;;;;;;16.42;8.02;;;-1.10;99.90;;;;;;5070252;28;20041;-72
2022/03/01 00:42:38;;;;;;;16.27;8.20;;;-1.10;99.90;;;;;;5071997;28;20040;-72
2022/03/01 00:45:10;;;;;;;18.58;9.05;;;-1.10;99.90;;;;;;5053981;28;20493;-72
2022/03/01 00:47:42;;;;;;;12.73;8.30;;;-1.10;99.90;;;;;;5072325;28;20033;-72
2022/03/01 00:50:14;;;;;;;12.50;7.60;;;-1.20;99.90;;;;;;5055215;28;20120;-72
2022/03/01 00:52:41;;;;;;;15.25;8.30;;;-1.20;99.90;;;;;;5071090;28;20131;-72
2022/03/01 00:55:12;;;;;;;15.43;8.77;;;-1.20;99.90;;;;;;5064773;28;20048;-72
2022/03/01 00:57:44;;;;;;;16.92;7.97;;;-1.30;99.90;;;;;;5052794;28;20136;-72
2022/03/01 01:00:12;;;;;;;14.90;8.70;;;-1.30;99.90;;;;;;5034709;28;20490;-72
2022/03/01 01:02:40;;;;;;;17.83;8.85;;;-1.30;99.90;;;;;;5034112;28;20068;-73
2022/03/01 01:05:12;;;;;;;12.63;7.78;;;-1.30;99.90;;;;;;5051510;28;20059;-72
2022/03/01 01:07:44;;;;;;;18.08;8.93;;;-1.30;99.90;;;;;;5035255;28;20106;-72
2022/03/01 01:10:17;;;;;;;13.70;7.85;;;-1.40;99.90;;;;;;5034097;28;20132;-72
2022/03/01 01:12:49;;;;;;;15.50;8.18;;;-1.40;99.90;;;;;;5034890;28;20555;-72
2022/03/01 01:15:20;;;;;;;15.95;8.18;;;-1.40;99.90;;;;;;5051944;28;20045;-72
2022/03/01 01:17:52;;;;;;;14.70;8.52;;;-1.40;99.90;;;;;;5052045;28;20053;-72
2022/03/01 01:20:24;;;;;;;16.30;8.40;;;-1.40;99.90;;;;;;5052037;28;20047;-72
2022/03/01 01:22:56;;;;;;;14.48;9.00;;;-1.40;99.90;;;;;;5034719;28;20117;-72
2022/03/01 01:25:27;;;;;;;15.80;7.93;;;-1.50;99.90;;;;;;5051614;28;20459;-72
2022/03/01 01:28:00;;;;;;;16.52;9.10;;;-1.50;99.90;;;;;;5033467;28;20072;-72
2022/03/01 01:30:34;;;;;;;15.05;9.57;;;-1.50;99.90;;;;;;5033571;28;20041;-72
2022/03/01 01:33:06;;;;;;;16.15;8.43;;;-1.50;99.90;;;;;;5033580;28;20072;-72
2022/03/01 01:35:34;;;;;;;14.07;8.43;;;-1.60;99.90;;;;;;5033754;28;20049;-72
2022/03/01 01:38:06;;;;;;;15.68;8.23;;;-1.60;99.90;;;;;;5033516;28;20063;-72
2022/03/01 01:40:38;;;;;;;14.25;7.57;;;-1.60;99.90;;;;;;5033629;28;20143;-72
2022/03/01 01:43:06;;;;;;;19.02;8.98;;;-1.60;99.90;;;;;;5033677;28;20072;-72
2022/03/01 01:45:38;;;;;;;16.25;8.85;;;-1.70;99.90;;;;;;5018073;28;20128;-72
2022/03/01 01:48:05;;;;;;;14.63;8.10;;;-1.70;99.90;;;;;;5033950;28;20087;-72
2022/03/01 01:50:33;;;;;;;15.32;9.05;;;-1.70;99.90;;;;;;5033611;28;20522;-72
2022/03/01 01:53:05;;;;;;;13.07;6.60;;;-1.80;99.90;;;;;;5050462;28;20466;-72
2022/03/01 01:55:36;;;;;;;16.15;8.60;;;-1.80;99.90;;;;;;5050643;28;20547;-72
2022/03/01 01:58:08;;;;;;;16.92;9.05;;;-1.80;99.90;;;;;;5051278;28;20033;-72
2022/03/01 02:00:35;;;;;;;13.82;8.32;;;-1.90;99.90;;;;;;5033142;28;20098;-72
2022/03/01 02:03:02;;;;;;;18.73;10.10;;;-1.90;99.90;;;;;;5032548;28;20061;-72
2022/03/01 02:05:34;;;;;;;14.23;8.70;;;-1.90;99.90;;;;;;5050776;28;20037;-72
2022/03/01 02:08:05;;;;;;;13.68;7.88;;;-1.90;99.90;;;;;;5032868;28;20051;-72
2022/03/01 02:10:37;;;;;;;14.25;8.93;;;-2.00;99.90;;;;;;5017291;28;20040;-72
2022/03/01 02:13:04;;;;;;;15.63;8.38;;;-2.00;99.90;;;;;;5050267;28;20034;-72
2022/03/01 02:15:37;;;;;;;12.68;8.60;;;-2.00;99.90;;;;;;5016710;28;20072;-72
2022/03/01 02:18:04;;;;;;;15.43;8.50;;;-2.00;99.90;;;;;;5032421;28;20045;-72
2022/03/01 02:20:36;;;;;;;17.10;9.45;;;-2.00;99.90;;;;;;5017293;28;20144;-72
2022/03/01 02:23:03;;;;;;;16.10;8.82;;;-2.10;99.90;;;;;;5050038;28;20132;-72
2022/03/01 02:25:35;;;;;;;15.52;8.55;;;-2.10;99.90;;;;;;5050529;28;20127;-72
2022/03/01 02:28:02;;;;;;;15.30;8.30;;;-2.10;99.90;;;;;;5050463;28;20515;-72
2022/03/01 02:30:34;;;;;;;18.98;9.35;;;-2.20;99.90;;;;;;5032706;28;20159;-72
2022/03/01 02:33:06;;;;;;;13.23;7.78;;;-2.20;99.90;;;;;;5033159;28;20065;-73
2022/03/01 02:35:38;;;;;;;16.88;8.98;;;-2.30;99.90;;;;;;5017223;28;20471;-72
2022/03/01 02:38:09;;;;;;;14.77;9.13;;;-2.30;99.90;;;;;;5033764;28;20120;-72
2022/03/01 02:40:41;;;;;;;17.30;9.25;;;-2.30;99.90;;;;;;5032592;28;20045;-72
2022/03/01 02:43:13;;;;;;;15.52;9.38;;;-2.40;99.90;;;;;;5031954;28;20139;-72
2022/03/01 02:45:39;;;;;;;16.02;8.05;;;-2.40;99.90;;;;;;5032667;28;20124;-72
2022/03/01 02:48:11;;;;;;;15.98;9.35;;;-2.40;99.90;;;;;;5048708;28;20120;-72
2022/03/01 02:50:43;;;;;;;15.32;7.90;;;-2.40;99.90;;;;;;5014329;28;20131;-72
2022/03/01 02:53:15;;;;;;;16.33;8.02;;;-2.50;99.90;;;;;;5047583;28;20128;-72
2022/03/01 02:55:47;;;;;;;19.67;8.48;;;-2.50;99.90;;;;;;5030002;28;20451;-72
2022/03/01 02:58:18;;;;;;;13.70;8.90;;;-2.60;99.90;;;;;;5030949;28;20204;-72
2022/03/01 03:00:50;;;;;;;17.67;7.95;;;-2.60;99.90;;;;;;5031298;28;20111;-73
2022/03/01 03:03:17;;;;;;;17.10;8.90;;;-2.60;99.90;;;;;;5048913;28;20556;-72
2022/03/01 03:05:49;;;;;;;13.20;8.32;;;-2.60;99.90;;;;;;5033292;28;20047;-72
2022/03/01 03:08:21;;;;;;;17.20;9.15;;;-2.70;99.90;;;;;;5053196;28;20488;-72
2022/03/01 03:10:49;;;;;;;17.00;8.35;;;-2.70;99.90;;;;;;5036267;28;20072;-72
2022/03/01 03:13:21;;;;;;;16.60;8.43;;;-2.80;99.90;;;;;;5019801;28;20144;-72
2022/03/01 03:15:53;;;;;;;15.80;8.52;;;-2.80;99.90;;;;;;5053759;28;20197;-72
2022/03/01 03:18:24;;;;;;;15.35;8.90;;;-2.80;99.90;;;;;;5053765;28;20039;-72
2022/03/01 03:20:56;;;;;;;18.02;9.27;;;-2.80;99.90;;;;;;5036979;28;20129;-72
2022/03/01 03:23:28;;;;;;;16.77;9.25;;;-2.90;99.90;;;;;;5035472;28;20063;-72
2022/03/01 03:26:00;;;;;;;18.58;8.60;;;-2.90;99.90;;;;;;5035791;28;20063;-72
2022/03/01 03:28:27;;;;;;;17.67;8.40;;;-3.00;99.90;;;;;;5053626;28;20500;-72
2022/03/01 03:30:59;;;;;;;20.30;10.30;;;-3.00;99.90;;;;;;5036780;28;20041;-72
2022/03/01 03:33:26;;;;;;;20.73;9.88;;;-3.10;99.90;;;;;;5053115;28;20113;-72
2022/03/01 03:35:58;;;;;;;21.23;8.85;;;-3.00;99.90;;;;;;5035760;28;20103;-72
2022/03/01 03:38:29;;;;;;;17.30;9.60;;;-3.10;99.90;;;;;;5036526;28;20124;-72
2022/03/01 03:41:01;;;;;;;15.57;8.27;;;-3.20;99.90;;;;;;5053273;28;20047;-72
2022/03/01 03:43:28;;;;;;;19.48;9.38;;;-3.10;99.90;;;;;;5035001;28;20080;-72
2022/03/01 03:46:00;;;;;;;16.55;9.65;;;-3.20;99.90;;;;;;5036404;28;20136;-72
2022/03/01 03:48:32;;;;;;;18.77;8.57;;;-3.30;99.90;;;;;;5035503;28;20529;-72
2022/03/01 03:51:03;;;;;;;17.35;9.30;;;-3.30;99.90;;;;;;5053168;28;20075;-72
2022/03/01 03:53:35;;;;;;;17.52;8.15;;;-3.30;99.90;;;;;;5052676;28;20662;-72
2022/03/01 03:56:07;;;;;;;17.38;8.52;;;-3.30;99.90;;;;;;5035096;28;20106;-72
2022/03/01 03:58:39;;;;;;;16.20;8.55;;;-3.30;99.90;;;;;;5019538;28;20049;-72
2022/03/01 04:01:11;;;;;;;19.48;9.73;;;-3.40;99.90;;;;;;5019563;28;20496;-72
2022/03/01 04:03:43;;;;;;;18.27;9.45;;;-3.40;99.90;;;;;;5052504;28;20131;-72
2022/03/01 04:06:15;;;;;;;17.10;9.07;;;-3.40;99.90;;;;;;5035906;28;20048;-72
2022/03/01 04:08:46;;;;;;;15.90;9.77;;;-3.40;99.90;;;;;;5035968;28;20115;-72
2022/03/01 04:11:18;;;;;;;17.60;8.45;;;-3.50;99.90;;;;;;5034966;28;20045;-72
2022/03/01 04:13:50;;;;;;;17.92;8.82;;;-3.50;99.90;;;;;;5019139;28;20543;-72
2022/03/01 04:16:22;;;;;;;17.90;8.27;;;-3.50;99.90;;;;;;5036391;28;20051;-72
2022/03/01 04:18:49;;;;;;;21.38;9.43;;;-3.50;99.90;;;;;;5052434;28;20048;-72
2022/03/01 04:21:16;;;;;;;17.40;9.05;;;-3.60;99.90;;;;;;5035456;28;20049;-72
2022/03/01 04:23:49;;;;;;;20.60;10.50;;;-3.60;99.90;;;;;;5019195;28;20044;-72
2022/03/01 04:26:23;;;;;;;16.17;8.50;;;-3.60;99.90;;;;;;5053001;28;20579;-72
2022/03/01 04:28:55;;;;;;;16.20;8.50;;;-3.60;99.90;;;;;;5019594;28;20045;-72
2022/03/01 04:31:22;;;;;;;16.10;8.07;;;-3.70;99.90;;;;;;5035238;28;20144;-72
2022/03/01 04:33:49;;;;;;;16.40;8.52;;;-3.70;99.90;;;;;;5034974;28;20086;-72
2022/03/01 04:36:21;;;;;;;17.13;8.70;;;-3.70;99.90;;;;;;5034970;28;20141;-72
2022/03/01 04:38:48;;;;;;;16.05;8.15;;;-3.70;99.90;;;;;;5035049;28;20101;-72
2022/03/01 04:41:19;;;;;;;17.38;8.32;;;-3.80;99.90;;;;;;5019399;28;20484;-72
2022/03/01 04:43:51;;;;;;;15.48;7.93;;;-3.80;99.90;;;;;;5018922;28;20068;-72
2022/03/01 04:46:23;;;;;;;18.13;9.00;;;-3.80;99.90;;;;;;5019070;28;20378;-72
2022/03/01 04:48:55;;;;;;;15.07;7.85;;;-3.80;99.90;;;;;;5035961;28;20045;-72
2022/03/01 04:51:22;;;;;;;15.73;8.75;;;-3.90;99.90;;;;;;5052092;28;20128;-72
2022/03/01 04:53:53;;;;;;;16.70;8.07;;;-3.90;99.90;;;;;;5033596;28;20076;-72
2022/03/01 04:56:25;;;;;;;14.00;8.02;;;-3.90;99.90;;;;;;5034115;28;20164;-72
2022/03/01 04:58:57;;;;;;;17.10;8.55;;;-4.00;99.90;;;;;;5018356;28;20052;-73
2022/03/01 05:01:29;;;;;;;17.33;9.55;;;-4.00;99.90;;;;;;5051945;28;20037;-72
2022/03/01 05:04:00;;;;;;;18.92;9.05;;;-4.00;99.90;;;;;;5030953;28;20408;-73
2022/03/01 05:06:33;;;;;;;18.42;9.68;;;-4.00;99.90;;;;;;5025890;28;20409;-72
2022/03/01 05:08:59;;;;;;;17.75;9.80;;;-4.00;99.90;;;;;;5035992;28;20079;-73
2022/03/01 05:11:31;;;;;;;21.73;9.70;;;-4.00;99.90;;;;;;5035364;28;20037;-73
2022/03/01 05:14:03;;;;;;;16.55;9.88;;;-4.00;99.90;;;;;;5050303;28;20116;-72
2022/03/01 05:16:35;;;;;;;18.52;10.35;;;-4.00;99.90;;;;;;5029241;28;20215;-72
2022/03/01 05:19:02;;;;;;;19.63;9.57;;;-4.00;99.90;;;;;;5069651;28;20048;-72
2022/03/01 05:21:34;;;;;;;20.67;11.35;;;-4.00;99.90;;;;;;5051164;28;20144;-72
2022/03/01 05:24:01;;;;;;;24.52;11.65;;;-4.00;99.90;;;;;;5049227;28;20512;-72
2022/03/01 05:26:33;;;;;;;22.80;11.95;;;-4.00;99.90;;;;;;5033807;28;20505;-72
2022/03/01 05:29:07;;;;;;;28.60;12.65;;;-4.00;99.90;;;;;;5051167;28;20045;-72
2022/03/01 05:31:34;;;;;;;38.92;15.02;;;-4.00;99.90;;;;;;5049591;28;20116;-73
2022/03/01 05:34:01;;;;;;;32.20;12.32;;;-4.00;99.90;;;;;;5050761;28;20044;-72
2022/03/01 05:36:33;;;;;;;21.80;10.30;;;-4.00;99.90;;;;;;5044819;28;20071;-72
2022/03/01 05:39:04;;;;;;;21.00;10.75;;;-4.10;99.90;;;;;;5050114;28;20044;-72
2022/03/01 05:41:36;;;;;;;26.92;11.25;;;-4.10;99.90;;;;;;5050031;28;20041;-72
2022/03/01 05:44:08;;;;;;;19.35;10.38;;;-4.10;99.90;;;;;;5033755;28;20103;-72
2022/03/01 05:46:35;;;;;;;25.25;12.18;;;-4.10;99.90;;;;;;5051798;28;20111;-72
2022/03/01 05:49:07;;;;;;;28.23;13.88;;;-4.10;99.90;;;;;;5071125;28;20060;-72
2022/03/01 05:51:39;;;;;;;23.27;13.52;;;-4.10;99.90;;;;;;5051088;28;20460;-72
2022/03/01 05:54:11;;;;;;;20.55;11.85;;;-4.10;99.90;;;;;;5064879;28;20063;-72
2022/03/01 05:56:42;;;;;;;18.13;11.63;;;-4.10;99.90;;;;;;5036649;28;20564;-73
2022/03/01 05:59:14;;;;;;;21.73;11.70;;;-4.10;99.90;;;;;;5037376;28;20135;-72
2022/03/01 06:01:46;;;;;;;20.02;10.10;;;-4.10;99.90;;;;;;5059646;28;20051;-72
2022/03/01 06:04:18;;;;;;;20.88;10.90;;;-4.20;99.90;;;;;;5037447;28;20037;-73
2022/03/01 06:06:50;;;;;;;20.20;10.38;;;-4.20;99.90;;;;;;5065016;28;20037;-72
2022/03/01 06:09:21;;;;;;;17.88;9.85;;;-4.10;99.90;;;;;;5036462;28;20520;-72
2022/03/01 06:11:53;;;;;;;17.85;9.40;;;-4.20;99.90;;;;;;5051238;28;20080;-73
2022/03/01 06:14:25;;;;;;;18.25;9.05;;;-4.20;99.90;;;;;;5024293;28;20060;-72
2022/03/01 06:16:52;;;;;;;20.13;10.05;;;-4.20;99.90;;;;;;5025807;28;20041;-72
2022/03/01 06:19:24;;;;;;;18.52;8.95;;;-4.20;99.90;;;;;;5048666;28;20041;-72
2022/03/01 06:21:56;;;;;;;20.85;11.23;;;-4.20;99.90;;;;;;5039446;28;20041;-72
2022/03/01 06:24:28;;;;;;;17.23;10.02;;;-4.20;99.90;;;;;;5046861;28;20041;-72
2022/03/01 06:27:00;;;;;;;19.67;10.07;;;-4.30;99.90;;;;;;5038577;28;20032;-72
2022/03/01 06:29:32;;;;;;;20.73;10.23;;;-4.40;99.90;;;;;;5031745;28;20037;-72
2022/03/01 06:31:59;;;;;;;19.48;9.52;;;-4.40;99.90;;;;;;5014387;28;20041;-72
2022/03/01 06:34:26;;;;;;;18.23;10.13;;;-4.40;99.90;;;;;;5049390;28;20120;-72
2022/03/01 06:36:58;;;;;;;22.92;9.40;;;-4.40;99.90;;;;;;5041399;28;20120;-72
2022/03/01 06:39:32;;;;;;;20.75;10.60;;;-4.30;99.90;;;;;;5033744;28;20094;-72
2022/03/01 06:41:59;;;;;;;21.13;10.20;;;-4.30;99.90;;;;;;5031807;28;20044;-72
2022/03/01 06:44:31;;;;;;;15.95;9.63;;;-4.40;99.90;;;;;;5053636;28;20087;-72
2022/03/01 06:46:58;;;;;;;19.45;9.90;;;-4.30;99.90;;;;;;5035915;28;20175;-72
2022/03/01 06:49:30;;;;;;;17.90;10.68;;;-4.30;99.90;;;;;;5034514;28;20029;-72
2022/03/01 06:52:04;;;;;;;20.55;9.57;;;-4.30;99.90;;;;;;5036052;28;20037;-72
2022/03/01 06:54:31;;;;;;;19.90;9.85;;;-4.30;99.90;;;;;;5035078;28;20037;-72
2022/03/01 06:57:03;;;;;;;16.27;9.07;;;-4.30;99.90;;;;;;5054243;28;20044;-72
2022/03/01 06:59:30;;;;;;;18.33;9.35;;;-4.20;99.90;;;;;;5034832;28;20144;-72
2022/03/01 07:01:57;;;;;;;18.70;8.75;;;-4.20;99.90;;;;;;5048090;28;20140;-70
2022/03/01 07:04:29;;;;;;;17.33;8.82;;;-4.10;99.90;;;;;;5050288;28;20048;-72
2022/03/01 07:07:01;;;;;;;18.08;9.88;;;-4.10;99.90;;;;;;5010460;28;20508;-72
2022/03/01 07:09:27;;;;;;;15.52;8.95;;;-4.10;99.90;;;;;;5037552;28;20516;-72
2022/03/01 07:11:56;;;;;;;16.77;8.30;;;-4.10;99.90;;;;;;5034805;28;20140;-72
2022/03/01 07:14:28;;;;;;;;;;;-4.00;99.90;;;;;;5051241;28;20033;-72
2022/03/01 07:16:59;;;;;;;15.45;8.73;;;-4.00;99.90;;;;;;5052927;28;19920;-72
2022/03/01 07:19:31;;;;;;;16.60;9.25;;;-4.00;99.90;;;;;;5067479;28;20135;-72
2022/03/01 07:21:58;;;;;;;19.52;9.88;;;-3.90;99.90;;;;;;5047715;28;20577;-72
2022/03/01 07:24:30;;;;;;;21.15;10.40;;;-3.80;99.90;;;;;;5034083;28;20127;-72
2022/03/01 07:27:02;;;;;;;17.98;11.80;;;-3.70;99.90;;;;;;5040685;28;20052;-71
2022/03/01 07:29:34;;;;;;;13.32;8.80;;;-3.60;99.90;;;;;;5045134;28;20135;-72
2022/03/01 07:32:07;;;;;;;12.60;7.57;;;-3.50;99.90;;;;;;5051327;28;20064;-72
2022/03/01 07:34:40;;;;;;;13.02;7.03;;;-3.40;99.90;;;;;;5052700;28;20040;-72
2022/03/01 07:37:08;;;;;;;11.80;7.07;;;-3.30;99.90;;;;;;5020925;28;20072;-72
2022/03/01 07:39:39;;;;;;;13.88;7.00;;;-3.20;99.90;;;;;;5035629;28;20091;-73
2022/03/01 07:42:06;;;;;;;12.40;7.35;;;-3.10;99.90;;;;;;5019474;28;20049;-72
2022/03/01 07:44:38;;;;;;;14.52;7.15;;;-3.00;99.90;;;;;;5045052;28;20488;-72
2022/03/01 07:47:10;;;;;;;12.88;7.38;;;-2.90;99.90;;;;;;5041903;28;20496;-72
2022/03/01 07:49:37;;;;;;;14.65;6.95;;;-2.80;99.90;;;;;;5052883;28;20041;-72
2022/03/01 07:52:09;;;;;;;14.00;6.43;;;-2.70;99.90;;;;;;5053651;28;20071;-72
2022/03/01 07:54:40;;;;;;;12.75;6.70;;;-2.70;99.90;;;;;;5049339;28;20120;-71
2022/03/01 07:57:12;;;;;;;11.75;6.82;;;-2.60;99.90;;;;;;5037475;28;20068;-72
2022/03/01 07:59:44;;;;;;;13.82;6.97;;;-2.40;99.90;;;;;;5051650;28;20041;-72
2022/03/01 08:02:11;;;;;;;12.43;6.05;;;-2.40;99.90;;;;;;5018711;28;20045;-72
2022/03/01 08:04:43;;;;;;;12.98;7.68;;;-2.30;99.90;;;;;;5040367;28;20037;-72
2022/03/01 08:07:15;;;;;;;11.48;6.32;;;-2.20;99.90;;;;;;5034310;28;20727;-72
2022/03/01 08:09:47;;;;;;;9.18;5.50;;;-2.10;99.90;;;;;;5030536;28;20073;-72
2022/03/01 08:12:14;;;;;;;9.98;6.53;;;-2.00;99.90;;;;;;5033364;28;20148;-72
2022/03/01 08:14:41;;;;;;;11.98;6.93;;;-1.90;99.90;;;;;;5070546;28;20048;-72
2022/03/01 08:17:08;;;;;;;12.07;6.10;;;-1.80;99.90;;;;;;5044112;28;20080;-72
2022/03/01 08:19:39;;;;;;;12.48;6.95;;;-1.70;99.90;;;;;;5031225;28;20204;-72
2022/03/01 08:22:11;;;;;;;13.20;7.68;;;-1.60;99.90;;;;;;5049096;28;20037;-72
2022/03/01 08:24:43;;;;;;;12.90;7.75;;;-1.40;99.90;;;;;;5052122;28;20496;-72
2022/03/01 08:27:10;;;;;;;13.57;6.72;;;-1.40;99.90;;;;;;5051444;28;20068;-72
2022/03/01 08:29:42;;;;;;;14.00;7.32;;;-1.30;99.90;;;;;;5034067;28;20120;-72
2022/03/01 08:32:14;;;;;;;12.68;6.00;;;-1.20;99.90;;;;;;5025448;28;20496;-72
2022/03/01 08:34:46;;;;;;;10.25;6.38;;;-1.10;99.90;;;;;;5033085;28;20435;-72
2022/03/01 08:37:17;;;;;;;11.98;6.80;;;-1.00;99.90;;;;;;5033914;28;20056;-72
2022/03/01 08:39:49;;;;;;;13.00;7.28;;;-0.80;99.90;;;;;;5051241;28;20128;-73
2022/03/01 08:42:16;;;;;;;15.43;6.95;;;-0.80;99.90;;;;;;5033189;28;20079;-72
2022/03/01 08:44:48;;;;;;;11.38;6.95;;;-0.70;99.90;;;;;;5033435;28;20115;-72
2022/03/01 08:47:15;;;;;;;16.60;7.15;;;-0.70;99.90;;;;;;5033435;28;20112;-72
2022/03/01 08:49:47;;;;;;;10.48;6.07;;;-0.60;99.90;;;;;;5035927;28;20392;-72
2022/03/01 08:52:20;;;;;;;13.43;7.22;;;-0.40;99.90;;;;;;5037821;28;20037;-73
2022/03/01 08:54:48;;;;;;;9.05;6.53;;;-0.30;99.90;;;;;;5022061;28;20052;-72
2022/03/01 08:57:20;;;;;;;11.50;7.18;;;-0.20;99.90;;;;;;5042806;28;20045;-72
2022/03/01 08:59:52;;;;;;;13.43;6.57;;;-0.20;99.90;;;;;;5046398;28;20412;-72
2022/03/01 09:02:24;;;;;;;10.27;6.53;;;0.00;99.90;;;;;;5050665;28;20037;-72
2022/03/01 09:04:56;;;;;;;12.43;7.53;;;0.10;99.90;;;;;;5050761;28;20083;-72
2022/03/01 09:07:27;;;;;;;10.52;6.20;;;0.10;99.90;;;;;;5038304;28;20033;-72
2022/03/01 09:10:00;;;;;;;10.85;6.47;;;0.20;99.90;;;;;;5029278;28;20041;-72
2022/03/01 09:12:26;;;;;;;9.57;6.20;;;0.30;99.90;;;;;;5030101;28;20137;-73
2022/03/01 09:14:54;;;;;;;11.23;6.55;;;0.40;99.90;;;;;;5061226;28;20098;-72
2022/03/01 09:17:26;;;;;;;14.32;7.38;;;0.50;99.90;;;;;;5018303;28;20057;-72
2022/03/01 09:19:53;;;;;;;12.60;6.70;;;0.70;99.90;;;;;;5016824;28;20084;-72
2022/03/01 09:22:24;;;;;;;13.23;7.30;;;0.80;99.90;;;;;;5061116;28;20490;-72
2022/03/01 09:24:56;;;;;;;9.63;6.40;;;0.80;99.90;;;;;;5048615;28;20041;-72
2022/03/01 09:27:28;;;;;;;11.52;7.45;;;0.90;99.90;;;;;;5043395;28;20044;-72
2022/03/01 09:29:55;;;;;;;10.50;6.85;;;1.00;99.90;;;;;;5050992;28;20112;-72
2022/03/01 09:32:27;;;;;;;14.65;7.07;;;1.10;99.90;;;;;;5041682;28;20040;-72
2022/03/01 09:34:59;;;;;;;12.68;7.72;;;1.20;99.90;;;;;;5037064;28;20126;-72
2022/03/01 09:37:26;;;;;;;21.17;12.10;;;1.20;99.90;;;;;;5033574;28;20563;-72
2022/03/01 09:39:53;;;;;;;22.67;13.00;;;1.30;99.90;;;;;;5038125;28;20045;-73
2022/03/01 09:42:21;;;;;;;14.73;8.20;;;1.40;99.90;;;;;;5031301;28;20106;-72
2022/03/01 09:44:54;;;;;;;13.27;7.03;;;1.50;99.90;;;;;;5033281;28;20136;-72
2022/03/01 09:47:26;;;;;;;13.52;6.95;;;1.50;99.90;;;;;;5029625;28;20079;-72
2022/03/01 09:49:58;;;;;;;14.55;8.00;;;1.60;99.90;;;;;;5033627;28;20112;-72
2022/03/01 09:52:25;;;;;;;36.08;15.85;;;1.70;99.90;;;;;;5016314;28;20423;-72
2022/03/01 09:54:57;;;;;;;42.55;16.42;;;1.80;99.90;;;;;;5032622;28;20049;-72
2022/03/01 09:57:29;;;;;;;15.07;9.52;;;2.00;99.90;;;;;;5033138;28;20128;-72
2022/03/01 09:59:56;;;;;;;17.65;9.52;;;2.10;99.90;;;;;;5034832;28;20052;-72
2022/03/01 10:02:39;;;;;;;23.42;12.15;;;2.20;99.90;;;;;;5033798;28;20053;-73
2022/03/01 10:05:14;;;;;;;14.38;8.90;;;2.40;99.90;;;;;;5048077;28;20041;-72
2022/03/01 10:07:43;;;;;;;14.98;9.05;;;2.40;99.90;;;;;;5049919;28;20086;-72
2022/03/01 10:10:16;;;;;;;12.18;7.45;;;2.50;99.90;;;;;;5049705;28;20064;-72
2022/03/01 10:12:54;;;;;;;13.15;7.55;;;2.60;99.90;;;;;;5032323;28;20569;-72
2022/03/01 10:15:28;;;;;;;15.15;7.88;;;2.70;99.90;;;;;;5046797;28;20036;-72
2022/03/01 10:17:55;;;;;;;14.90;7.63;;;2.70;99.90;;;;;;5051402;28;20393;-72
2022/03/01 10:20:27;;;;;;;17.90;9.85;;;2.70;99.90;;;;;;5054996;28;20123;-72
2022/03/01 10:22:57;;;;;;;10.45;6.85;;;2.80;99.90;;;;;;5035834;28;20118;-72
2022/03/01 10:25:29;;;;;;;13.85;7.93;;;2.90;99.90;;;;;;5054752;28;20215;-72
2022/03/01 10:28:01;;;;;;;12.38;7.65;;;3.00;99.90;;;;;;5021245;28;20061;-72
2022/03/01 10:30:35;;;;;;;14.07;7.70;;;3.10;99.90;;;;;;5037685;28;20215;-72
2022/03/01 10:33:10;;;;;;;13.40;8.07;;;3.20;99.90;;;;;;5048928;28;20044;-72
2022/03/01 10:35:39;;;;;;;12.75;7.80;;;3.30;99.90;;;;;;5054101;28;20124;-72
2022/03/01 10:38:11;;;;;;;16.67;8.30;;;3.40;99.90;;;;;;5036067;28;20056;-72
2022/03/01 10:40:43;;;;;;;12.43;7.80;;;3.40;99.50;;;;;;5052313;28;20067;-71
2022/03/01 10:43:15;;;;;;;13.60;8.10;;;3.50;99.90;;;;;;5036469;28;20178;-72
2022/03/01 10:45:50;;;;;;;11.55;7.82;;;3.60;98.40;;;;;;5036719;28;20073;-72
2022/03/01 10:48:28;;;;;;;12.40;6.72;;;3.60;97.80;;;;;;5019525;28;20127;-72
2022/03/01 10:51:09;;;;;;;14.25;8.32;;;3.70;97.60;;;;;;5051149;28;20048;-72
2022/03/01 10:53:42;;;;;;;12.68;7.70;;;3.80;96.90;;;;;;5047299;28;20049;-72
2022/03/01 10:56:11;;;;;;;13.52;7.68;;;4.00;97.20;;;;;;5033010;28;20064;-72
2022/03/01 10:58:44;;;;;;;13.90;7.90;;;4.10;96.10;;;;;;5055461;28;20061;-72
2022/03/01 11:01:12;;;;;;;12.65;7.97;;;4.20;95.00;;;;;;5054786;28;20123;-72
2022/03/01 11:03:44;;;;;;;12.10;7.55;;;4.30;94.90;;;;;;5037237;28;20047;-72
2022/03/01 11:06:11;;;;;;;10.80;6.85;;;4.40;94.60;;;;;;5018554;28;20108;-72
2022/03/01 11:08:45;;;;;;;13.50;7.68;;;4.40;94.70;;;;;;5038734;28;20173;-72
2022/03/01 11:11:21;;;;;;;;;;;4.50;93.60;;;;;;5051292;28;20040;-72
2022/03/01 11:13:54;;;;;;;12.25;7.47;;;4.60;93.30;;;;;;5054346;28;19921;-72
2022/03/01 11:16:39;;;;;;;10.85;7.60;;;4.60;93.20;;;;;;5040334;28;20048;-72
2022/03/01 11:19:49;;;;;;;11.48;7.45;;;4.70;92.60;;;;;;5046151;28;20052;-72
2022/03/01 11:22:21;;;;;;;11.70;7.35;;;4.80;92.40;;;;;;5053053;28;20048;-72
2022/03/01 11:24:49;;;;;;;10.45;7.22;;;5.00;92.70;;;;;;5055577;28;20036;-72
2022/03/01 11:27:25;;;;;;;10.63;7.17;;;5.10;91.10;;;;;;5028013;28;20040;-72
2022/03/01 11:30:09;;;;;;;10.10;6.90;;;5.10;91.40;;;;;;5034964;28;20044;-72
2022/03/01 11:32:44;;;;;;;12.07;8.00;;;5.10;91.40;;;;;;5049453;28;20037;-72
2022/03/01 11:35:22;;;;;;;11.93;7.10;;;5.20;91.70;;;;;;5036231;28;20069;-72
2022/03/01 11:38:07;;;;;;;12.48;7.55;;;5.30;90.80;;;;;;5037688;28;20400;-73
2022/03/01 11:40:42;;;;;;;12.20;7.30;;;5.30;90.50;;;;;;5030919;28;20522;-73
2022/03/01 11:43:16;;;;;;;12.18;7.80;;;5.40;90.50;;;;;;5035898;28;20045;-72
2022/03/01 11:45:54;;;;;;;13.68;7.63;;;5.50;89.90;;;;;;5038556;28;20472;-72
2022/03/01 11:48:29;;;;;;;13.43;7.10;;;5.60;87.40;;;;;;5055255;28;20064;-72
2022/03/01 11:51:03;;;;;;;14.75;9.40;;;5.60;89.80;;;;;;5038130;28;20048;-72
2022/03/01 11:53:35;;;;;;;13.88;8.95;;;5.70;87.80;;;;;;5039238;28;20704;-72
2022/03/01 11:56:07;;;;;;;10.07;7.72;;;5.80;85.90;;;;;;5052680;28;20045;-72
2022/03/01 11:58:39;;;;;;;11.60;7.03;;;6.00;85.00;;;;;;5032965;28;20045;-72
2022/03/01 12:01:11;;;;;;;12.13;7.72;;;6.00;83.60;;;;;;5039706;28;20049;-72
2022/03/01 12:03:43;;;;;;;10.88;7.80;;;6.10;86.10;;;;;;5058653;28;20037;-72
2022/03/01 12:06:21;;;;;;;12.27;7.53;;;6.10;84.00;;;;;;5054595;28;20075;-72
2022/03/01 12:09:03;;;;;;;10.25;7.88;;;6.30;82.10;;;;;;5045709;28;20050;-73
2022/03/01 12:11:41;;;;;;;13.38;7.70;;;6.30;81.90;;;;;;5076966;28;20033;-72
2022/03/01 12:14:20;;;;;;;14.40;9.13;;;6.30;81.20;;;;;;5045386;28;20091;-72
2022/03/01 12:16:47;;;;;;;11.82;8.10;;;6.40;81.50;;;;;;5051531;28;20033;-73
2022/03/01 12:19:20;;;;;;;13.02;7.55;;;6.50;81.10;;;;;;5051618;28;20044;-72
2022/03/01 12:21:51;;;;;;;12.18;8.18;;;6.50;80.90;;;;;;5036259;28;20476;-72
2022/03/01 12:24:22;;;;;;;14.75;7.63;;;6.50;80.00;;;;;;5043757;28;20176;-72
2022/03/01 12:26:56;;;;;;;13.10;8.18;;;6.70;82.60;;;;;;5033488;28;20133;-73
2022/03/01 12:29:35;;;;;;;14.38;7.53;;;6.80;80.50;;;;;;5052316;28;20037;-73
2022/03/01 12:32:10;;;;;;;17.13;8.40;;;6.90;79.70;;;;;;5067795;28;20045;-72
2022/03/01 12:34:42;;;;;;;14.95;7.00;;;6.90;82.20;;;;;;5051137;28;20049;-73
2022/03/01 12:37:14;;;;;;;10.35;6.93;;;6.90;83.00;;;;;;5064676;28;20073;-73
2022/03/01 12:39:46;;;;;;;14.68;7.60;;;6.90;79.50;;;;;;5033491;28;20144;-73
2022/03/01 12:42:21;;;;;;;11.68;7.60;;;6.90;78.90;;;;;;5030940;28;20048;-72
2022/03/01 12:44:48;;;;;;;15.80;8.30;;;7.00;78.20;;;;;;5034650;28;20044;-72
2022/03/01 12:47:19;;;;;;;11.75;8.07;;;7.00;77.20;;;;;;5032492;28;20036;-72
2022/03/01 12:49:51;;;;;;;10.65;6.72;;;7.10;78.60;;;;;;5036103;28;20136;-72
2022/03/01 12:52:23;;;;;;;10.27;6.35;;;7.20;76.70;;;;;;5023011;28;20044;-72
2022/03/01 12:54:58;;;;;;;12.23;6.72;;;7.20;75.50;;;;;;5030030;28;20049;-72
2022/03/01 12:57:36;;;;;;;11.20;6.95;;;7.30;76.40;;;;;;5063466;28;20067;-72